createdAt,value
2018-03-04T00:01:36.916Z,92.60
2018-03-04T00:04:05.541Z,91.58
2018-03-04T00:06:33.844Z,91.36
2018-03-04T00:09:02.917Z,91.13
2018-03-04T00:11:31.260Z,91.13
2018-03-04T00:14:00.361Z,91.52
2018-03-04T00:16:28.476Z,92.33
2018-03-04T00:18:56.788Z,92.55
2018-03-04T00:21:25.873Z,92.32
2018-03-04T00:23:54.188Z,92.09
2018-03-04T00:26:22.516Z,91.78
2018-03-04T00:28:51.740Z,91.14
2018-03-04T00:31:20.112Z,90.38
2018-03-04T00:33:48.553Z,90.25
2018-03-04T00:36:17.621Z,91.06
2018-03-04T00:38:46.035Z,91.15
2018-03-04T00:41:14.543Z,90.14
2018-03-04T00:43:42.936Z,89.87
2018-03-04T00:46:12.068Z,89.43
2018-03-04T00:48:40.416Z,89.02
2018-03-04T00:51:08.804Z,88.89
2018-03-04T00:53:37.112Z,88.87
2018-03-04T00:56:05.435Z,88.65
2018-03-04T00:58:34.154Z,88.46
2018-03-04T01:01:02.468Z,88.77
2018-03-04T01:03:31.282Z,89.87
2018-03-04T01:05:59.596Z,89.54
2018-03-04T01:08:28.000Z,88.96
2018-03-04T01:10:56.361Z,88.75
2018-03-04T01:13:25.292Z,88.78
2018-03-04T01:15:53.607Z,88.80
2018-03-04T01:18:21.959Z,88.86
2018-03-04T01:20:50.277Z,88.61
2018-03-04T01:23:18.587Z,88.29
2018-03-04T01:25:46.936Z,88.23
2018-03-04T01:28:15.776Z,88.24
2018-03-04T01:30:44.888Z,88.87
2018-03-04T01:33:13.203Z,89.34
2018-03-04T01:35:41.511Z,90.15
2018-03-04T01:38:09.869Z,90.97
2018-03-04T01:40:38.193Z,90.77
2018-03-04T01:43:07.268Z,89.86
2018-03-04T01:45:35.618Z,89.49
2018-03-04T01:48:03.685Z,89.29
2018-03-04T01:50:32.015Z,89.15
2018-03-04T01:53:00.984Z,89.30
2018-03-04T01:55:29.286Z,89.65
2018-03-04T01:57:57.649Z,90.09
2018-03-04T02:00:25.964Z,90.27
2018-03-04T02:02:54.804Z,90.52
2018-03-04T02:05:23.144Z,90.35
2018-03-04T02:07:51.456Z,90.59
2018-03-04T02:10:19.789Z,90.79
2018-03-04T02:12:48.129Z,91.17
2018-03-04T02:15:16.457Z,91.65
2018-03-04T02:17:44.800Z,92.29
2018-03-04T02:20:13.116Z,92.53
2018-03-04T02:22:41.472Z,92.43
2018-03-04T02:25:09.841Z,93.42
2018-03-04T02:27:38.152Z,94.51
2018-03-04T02:30:06.908Z,95.19
2018-03-04T02:32:35.259Z,94.60
2018-03-04T02:35:04.721Z,93.96
2018-03-04T02:37:33.819Z,93.48
2018-03-04T02:40:02.951Z,95.03
2018-03-04T02:42:31.557Z,94.76
2018-03-04T02:44:59.900Z,94.28
2018-03-04T02:47:28.279Z,94.02
2018-03-04T02:49:57.114Z,94.30
2018-03-04T02:52:26.227Z,94.28
2018-03-04T02:54:54.549Z,93.93
2018-03-04T02:57:22.908Z,93.88
2018-03-04T02:59:51.232Z,93.80
2018-03-04T03:02:19.611Z,94.06
2018-03-04T03:04:48.888Z,94.21
2018-03-04T03:07:17.229Z,94.66
2018-03-04T03:09:45.588Z,95.14
2018-03-04T03:12:13.943Z,95.26
2018-03-04T03:17:17.795Z,95.75
2018-03-04T03:19:46.272Z,95.82
2018-03-04T03:22:15.312Z,95.94
2018-03-04T03:24:43.840Z,95.86
2018-03-04T03:27:12.477Z,95.71
2018-03-04T03:29:40.791Z,95.51
2018-03-04T03:32:09.899Z,95.40
2018-03-04T03:34:38.232Z,95.11
2018-03-04T03:37:06.580Z,94.75
2018-03-04T03:39:35.167Z,94.84
2018-03-04T03:42:03.481Z,94.30
2018-03-04T03:44:31.821Z,94.12
2018-03-04T03:47:00.552Z,94.21
2018-03-04T03:49:29.681Z,94.22
2018-03-04T03:51:58.024Z,94.06
2018-03-04T03:54:26.341Z,93.93
2018-03-04T03:56:54.687Z,93.87
2018-03-04T03:59:23.776Z,93.62
2018-03-04T04:01:52.904Z,93.50
2018-03-04T04:04:21.228Z,93.67
2018-03-04T04:06:50.032Z,93.97
2018-03-04T04:09:19.169Z,95.24
2018-03-04T04:11:47.499Z,95.41
2018-03-04T04:14:15.828Z,95.42
2018-03-04T04:16:44.190Z,95.00
2018-03-04T04:19:12.580Z,94.48
2018-03-04T04:21:40.924Z,94.32
2018-03-04T04:24:10.025Z,94.30
2018-03-04T04:26:39.144Z,94.37
2018-03-04T04:29:07.468Z,94.07
2018-03-04T04:31:35.831Z,94.08
2018-03-04T04:34:04.148Z,93.95
2018-03-04T04:36:33.309Z,93.74
2018-03-04T04:39:01.642Z,94.10
2018-03-04T04:41:29.968Z,94.66
2018-03-04T04:43:58.328Z,95.70
2018-03-04T04:46:26.657Z,96.76
2018-03-04T04:48:55.680Z,97.26
2018-03-04T04:51:24.008Z,97.01
2018-03-04T04:53:52.958Z,96.58
2018-03-04T04:56:21.277Z,96.09
2018-03-04T04:58:49.611Z,95.71
2018-03-04T05:01:17.980Z,95.65
2018-03-04T05:03:46.313Z,95.56
2018-03-04T05:06:14.635Z,95.41
2018-03-04T05:08:43.037Z,95.81
2018-03-04T05:11:11.359Z,95.55
2018-03-04T05:13:39.691Z,95.35
2018-03-04T05:16:08.073Z,95.11
2018-03-04T05:18:36.396Z,95.10
2018-03-04T05:21:04.736Z,95.31
2018-03-04T05:23:33.312Z,95.32
2018-03-04T05:26:01.631Z,95.48
2018-03-04T05:28:29.961Z,95.56
2018-03-04T05:30:58.328Z,95.59
2018-03-04T05:33:26.652Z,95.86
2018-03-04T05:35:55.367Z,96.02
2018-03-04T05:38:24.112Z,95.82
2018-03-04T05:40:52.528Z,95.89
2018-03-04T05:43:21.731Z,96.16
2018-03-04T05:45:50.183Z,97.10
2018-03-04T05:48:18.508Z,96.95
2018-03-04T05:50:46.856Z,96.97
2018-03-04T05:53:19.445Z,96.99
2018-03-04T05:55:48.665Z,97.04
2018-03-04T05:58:17.018Z,96.98
2018-03-04T06:00:46.113Z,96.78
2018-03-04T06:03:15.029Z,96.48
2018-03-04T06:05:44.412Z,96.29
2018-03-04T06:08:12.740Z,96.14
2018-03-04T06:10:41.204Z,95.91
2018-03-04T06:13:11.027Z,95.92
2018-03-04T06:15:39.360Z,96.23
2018-03-04T06:18:07.766Z,96.28
2018-03-04T06:20:36.083Z,96.20
2018-03-04T06:23:04.416Z,96.11
2018-03-04T06:25:33.561Z,96.48
2018-03-04T06:28:01.887Z,96.44
2018-03-04T06:30:30.212Z,96.78
2018-03-04T06:32:58.683Z,96.94
2018-03-04T06:35:27.036Z,97.02
2018-03-04T06:37:55.358Z,97.02
2018-03-04T06:40:23.723Z,96.97
2018-03-04T06:42:52.748Z,96.95
2018-03-04T06:45:21.112Z,96.84
2018-03-04T06:47:49.424Z,96.74
2018-03-04T06:50:17.729Z,97.68
2018-03-04T06:52:46.069Z,99.00
2018-03-04T06:55:15.152Z,99.31
2018-03-04T06:57:43.514Z,99.56
2018-03-04T07:00:11.827Z,99.95
2018-03-04T07:02:40.145Z,99.99
2018-03-04T07:05:08.484Z,99.81
2018-03-04T07:07:37.556Z,99.11
2018-03-04T07:10:05.896Z,98.31
2018-03-04T07:12:34.209Z,98.73
2018-03-04T07:15:02.552Z,95.59
2018-03-04T07:17:30.868Z,90.17
2018-03-04T07:19:59.176Z,89.25
2018-03-04T07:22:27.544Z,84.57
2018-03-04T07:24:55.853Z,80.30
2018-03-04T07:27:24.160Z,77.96
2018-03-04T07:29:52.492Z,79.39
2018-03-04T07:32:20.805Z,75.12
2018-03-04T07:34:49.162Z,76.85
2018-03-04T07:37:17.477Z,74.97
2018-03-04T07:39:45.784Z,73.38
2018-03-04T07:42:14.893Z,65.42
2018-03-04T07:44:43.204Z,60.78
2018-03-04T07:47:11.552Z,56.68
2018-03-04T07:49:39.944Z,56.36
2018-03-04T07:52:08.281Z,50.92
2018-03-04T07:54:36.879Z,47.09
2018-03-04T07:57:06.091Z,47.11
2018-03-04T07:59:34.463Z,49.16
2018-03-04T08:02:02.778Z,47.45
2018-03-04T08:04:31.244Z,44.21
2018-03-04T08:06:59.897Z,44.94
2018-03-04T08:09:28.211Z,44.17
2018-03-04T08:11:56.548Z,43.73
2018-03-04T08:14:24.898Z,44.08
2018-03-04T08:16:53.264Z,42.32
2018-03-04T08:19:22.099Z,40.06
2018-03-04T08:21:50.905Z,38.57
2018-03-04T08:24:36.770Z,37.52
2018-03-04T08:27:22.600Z,42.91
2018-03-04T08:29:51.139Z,41.10
2018-03-04T08:32:19.468Z,38.69
2018-03-04T08:34:47.800Z,37.32
2018-03-04T08:37:16.149Z,40.18
2018-03-04T08:39:44.465Z,41.38
2018-03-04T08:42:12.816Z,42.42
2018-03-04T08:44:41.840Z,39.33
2018-03-04T08:47:10.243Z,40.80
2018-03-04T08:49:38.608Z,41.72
2018-03-04T08:52:07.004Z,37.18
2018-03-04T08:54:35.704Z,37.17
2018-03-04T08:57:04.034Z,34.95
2018-03-04T08:59:32.399Z,39.45
2018-03-04T09:02:00.749Z,46.22
2018-03-04T09:04:29.064Z,52.65
2018-03-04T09:06:57.401Z,56.91
2018-03-04T09:09:25.771Z,60.43
2018-03-04T09:11:54.083Z,62.28
2018-03-04T09:14:22.401Z,64.19
2018-03-04T09:16:50.798Z,64.42
2018-03-04T09:19:19.156Z,54.90
2018-03-04T09:21:47.481Z,45.74
2018-03-04T09:24:15.787Z,36.78
2018-03-04T09:26:45.009Z,32.86
2018-03-04T09:29:13.352Z,29.14
2018-03-04T09:31:41.732Z,27.02
2018-03-04T09:34:10.147Z,23.39
2018-03-04T09:36:39.404Z,22.28
2018-03-04T09:39:08.626Z,20.65
2018-03-04T09:41:37.036Z,19.02
2018-03-04T09:44:05.417Z,18.32
2018-03-04T09:46:33.724Z,20.71
2018-03-04T09:49:02.064Z,23.48
2018-03-04T09:51:30.376Z,27.78
2018-03-04T09:53:58.764Z,33.57
2018-03-04T09:56:27.088Z,30.21
2018-03-04T09:58:55.433Z,25.57
2018-03-04T10:01:23.772Z,28.33
2018-03-04T10:03:52.096Z,26.27
2018-03-04T10:06:21.216Z,24.04
2018-03-04T10:08:50.323Z,25.29
2018-03-04T10:11:19.371Z,22.91
2018-03-04T10:13:47.744Z,19.84
2018-03-04T10:16:16.075Z,25.11
2018-03-04T10:18:44.412Z,24.15
2018-03-04T10:21:13.024Z,22.07
2018-03-04T10:23:41.327Z,20.88
2018-03-04T10:26:09.659Z,21.61
2018-03-04T10:28:38.816Z,19.78
2018-03-04T10:31:07.186Z,19.14
2018-03-04T10:33:35.605Z,20.24
2018-03-04T10:36:03.929Z,22.36
2018-03-04T10:38:33.308Z,21.38
2018-03-04T10:41:01.843Z,23.03
2018-03-04T10:43:30.508Z,18.81
2018-03-04T10:45:58.899Z,16.95
2018-03-04T10:48:27.828Z,18.33
2018-03-04T10:50:56.168Z,17.82
2018-03-04T10:53:24.824Z,13.51
2018-03-04T10:55:54.116Z,10.19
2018-03-04T10:58:23.236Z,8.42
2018-03-04T11:01:01.491Z,7.20
2018-03-04T11:03:29.812Z,6.85
2018-03-04T11:05:58.492Z,8.17
2018-03-04T11:08:26.812Z,8.97
2018-03-04T11:10:55.116Z,9.71
2018-03-04T11:13:23.527Z,7.26
2018-03-04T11:15:51.895Z,7.20
2018-03-04T11:18:20.212Z,9.45
2018-03-04T11:20:48.612Z,9.68
2018-03-04T11:23:17.196Z,12.37
2018-03-04T11:25:46.935Z,13.78
2018-03-04T11:28:16.023Z,15.95
2018-03-04T11:30:44.338Z,13.34
2018-03-04T11:33:12.676Z,15.69
2018-03-04T11:35:40.983Z,19.54
2018-03-04T11:38:09.451Z,25.54
2018-03-04T11:40:37.785Z,20.62
2018-03-04T11:43:06.236Z,18.58
2018-03-04T11:45:34.536Z,16.74
2018-03-04T11:48:04.335Z,16.54
2018-03-04T11:50:32.656Z,16.82
2018-03-04T11:53:01.647Z,16.05
2018-03-04T11:55:29.980Z,15.92
2018-03-04T11:57:58.456Z,17.53
2018-03-04T12:00:26.869Z,20.41
2018-03-04T12:02:55.271Z,19.55
2018-03-04T12:05:23.629Z,19.02
2018-03-04T12:07:51.940Z,22.26
2018-03-04T12:10:20.528Z,21.21
2018-03-04T12:12:48.852Z,19.92
2018-03-04T12:15:17.213Z,19.64
2018-03-04T12:17:45.743Z,19.06
2018-03-04T12:20:14.061Z,18.72
2018-03-04T12:22:42.524Z,20.03
2018-03-04T12:25:11.046Z,22.48
2018-03-04T12:27:40.080Z,22.83
2018-03-04T12:30:08.637Z,22.65
2018-03-04T12:32:36.944Z,22.35
2018-03-04T12:35:06.744Z,22.98
2018-03-04T12:37:34.992Z,25.45
2018-03-04T12:40:03.313Z,26.02
2018-03-04T12:42:31.689Z,30.70
2018-03-04T12:45:00.005Z,36.06
2018-03-04T12:47:29.646Z,38.67
2018-03-04T12:49:58.715Z,40.69
2018-03-04T12:52:27.017Z,40.90
2018-03-04T12:54:55.365Z,41.26
2018-03-04T12:57:23.787Z,41.43
2018-03-04T12:59:52.544Z,42.66
2018-03-04T13:02:21.057Z,43.50
2018-03-04T13:04:49.364Z,44.54
2018-03-04T13:07:17.676Z,44.82
2018-03-04T13:09:46.779Z,45.22
2018-03-04T13:12:15.096Z,45.33
2018-03-04T13:14:44.184Z,46.01
2018-03-04T13:17:12.519Z,47.24
2018-03-04T13:19:41.390Z,46.42
2018-03-04T13:22:09.705Z,46.01
2018-03-04T13:24:38.488Z,46.47
2018-03-04T13:27:07.248Z,45.45
2018-03-04T13:29:36.208Z,45.09
2018-03-04T13:32:04.992Z,45.37
2018-03-04T13:34:34.196Z,43.92
2018-03-04T13:37:02.577Z,45.66
2018-03-04T13:39:30.912Z,46.29
2018-03-04T13:41:59.225Z,45.38
2018-03-04T13:44:27.541Z,45.34
2018-03-04T13:46:55.900Z,45.27
2018-03-04T13:49:25.007Z,46.08
2018-03-04T13:51:53.986Z,45.71
2018-03-04T13:54:22.359Z,46.01
2018-03-04T13:56:51.268Z,45.32
2018-03-04T13:59:20.529Z,44.90
2018-03-04T14:01:48.996Z,45.69
2018-03-04T14:04:17.336Z,45.93
2018-03-04T14:06:45.884Z,46.24
2018-03-04T14:09:14.260Z,48.05
2018-03-04T14:11:43.260Z,50.07
2018-03-04T14:14:11.580Z,50.55
2018-03-04T14:16:39.916Z,51.61
2018-03-04T14:19:08.248Z,52.01
2018-03-04T14:21:36.847Z,53.06
2018-03-04T14:24:05.217Z,53.14
2018-03-04T14:26:33.582Z,52.01
2018-03-04T14:29:01.933Z,51.54
2018-03-04T14:31:31.008Z,51.23
2018-03-04T14:33:59.390Z,51.20
2018-03-04T14:36:27.773Z,51.31
2018-03-04T14:38:56.172Z,51.52
2018-03-04T14:41:24.507Z,51.73
2018-03-04T14:43:52.185Z,50.37
2018-03-04T14:46:20.528Z,49.12
2018-03-04T14:48:48.845Z,49.66
2018-03-04T14:51:17.204Z,48.91
2018-03-04T14:53:46.437Z,48.73
2018-03-04T14:56:14.757Z,49.24
2018-03-04T14:58:43.743Z,48.13
2018-03-04T15:01:12.893Z,48.35
2018-03-04T15:03:41.219Z,47.98
2018-03-04T15:06:09.548Z,48.91
2018-03-04T15:08:37.896Z,48.75
2018-03-04T15:11:06.216Z,49.28
2018-03-04T15:13:34.536Z,49.12
2018-03-04T15:16:03.512Z,49.31
2018-03-04T15:18:32.229Z,49.99
2018-03-04T15:21:01.156Z,49.22
2018-03-04T15:23:29.533Z,49.57
2018-03-04T15:25:58.648Z,48.17
2018-03-04T15:28:27.445Z,47.62
2018-03-04T15:30:55.808Z,48.98
2018-03-04T15:33:24.888Z,49.28
2018-03-04T15:35:53.435Z,49.53
2018-03-04T15:38:21.956Z,50.19
2018-03-04T15:40:50.333Z,50.37
2018-03-04T15:43:19.264Z,50.45
2018-03-04T15:45:47.532Z,49.92
2018-03-04T15:48:16.158Z,50.61
2018-03-04T15:50:44.511Z,50.10
2018-03-04T15:53:12.828Z,50.54
2018-03-04T15:55:41.932Z,50.79
2018-03-04T15:58:12.848Z,50.77
2018-03-04T16:00:41.243Z,51.32
2018-03-04T16:03:09.692Z,50.99
2018-03-04T16:05:38.172Z,51.01
2018-03-04T16:08:06.996Z,51.56
2018-03-04T16:10:35.360Z,52.54
2018-03-04T16:13:03.677Z,52.77
2018-03-04T16:15:33.945Z,52.54
2018-03-04T16:18:03.055Z,52.91
2018-03-04T16:20:33.316Z,53.22
2018-03-04T16:23:01.643Z,52.95
2018-03-04T16:25:29.930Z,53.43
2018-03-04T16:27:58.244Z,54.23
2018-03-04T16:30:27.376Z,55.33
2018-03-04T16:32:55.699Z,54.38
2018-03-04T16:35:23.842Z,54.63
2018-03-04T16:37:52.152Z,54.82
2018-03-04T16:40:20.580Z,54.69
2018-03-04T16:42:49.652Z,55.14
2018-03-04T16:45:17.966Z,55.46
2018-03-04T16:47:46.343Z,55.49
2018-03-04T16:50:14.657Z,55.94
2018-03-04T16:52:43.057Z,56.17
2018-03-04T16:55:12.616Z,57.12
2018-03-04T16:57:40.929Z,58.59
2018-03-04T17:00:09.838Z,59.73
2018-03-04T17:02:38.403Z,59.96
2018-03-04T17:05:07.036Z,60.19
2018-03-04T17:07:35.680Z,60.78
2018-03-04T17:10:03.996Z,61.07
2018-03-04T17:12:33.635Z,60.93
2018-03-04T17:15:02.042Z,61.54
2018-03-04T17:17:30.360Z,62.17
2018-03-04T17:19:59.237Z,62.10
2018-03-04T17:22:28.409Z,62.61
2018-03-04T17:24:58.532Z,62.78
2018-03-04T17:27:27.399Z,62.28
2018-03-04T17:29:56.369Z,62.37
2018-03-04T17:32:24.731Z,62.69
2018-03-04T17:34:53.201Z,62.90
2018-03-04T17:37:22.088Z,61.85
2018-03-04T17:39:50.396Z,61.84
2018-03-04T17:42:18.799Z,62.21
2018-03-04T17:44:47.833Z,62.87
2018-03-04T17:47:16.157Z,63.04
2018-03-04T17:49:45.886Z,63.75
2018-03-04T17:52:14.280Z,63.74
2018-03-04T17:54:45.022Z,63.70
2018-03-04T17:57:14.105Z,63.78
2018-03-04T17:59:42.442Z,64.17
2018-03-04T18:02:11.380Z,65.11
2018-03-04T18:04:40.599Z,64.43
2018-03-04T18:07:09.140Z,64.53
2018-03-04T18:09:38.044Z,64.86
2018-03-04T18:12:06.563Z,64.92
2018-03-04T18:14:34.883Z,64.06
2018-03-04T18:17:03.608Z,64.39
2018-03-04T18:19:31.985Z,64.86
2018-03-04T18:22:00.300Z,65.08
2018-03-04T18:24:28.613Z,64.49
2018-03-04T18:26:56.984Z,64.68
2018-03-04T18:29:25.792Z,64.68
2018-03-04T18:31:54.107Z,64.76
2018-03-04T18:34:22.464Z,64.95
2018-03-04T18:36:51.188Z,64.97
2018-03-04T18:39:19.505Z,64.48
2018-03-04T18:41:47.877Z,64.60
2018-03-04T18:44:16.181Z,64.42
2018-03-04T18:46:44.565Z,64.50
2018-03-04T18:49:12.981Z,64.43
2018-03-04T18:51:41.297Z,64.05
2018-03-04T18:54:09.664Z,64.13
2018-03-04T18:56:39.174Z,63.55
2018-03-04T18:59:07.479Z,63.37
2018-03-04T19:01:36.991Z,63.36
2018-03-04T19:04:06.812Z,63.12
2018-03-04T19:06:35.187Z,63.90
2018-03-04T19:09:04.316Z,63.27
2018-03-04T19:11:33.157Z,62.07
2018-03-04T19:14:01.469Z,63.81
2018-03-04T19:16:29.857Z,62.52
2018-03-04T19:18:58.521Z,62.44
2018-03-04T19:21:27.088Z,62.12
2018-03-04T19:23:56.205Z,61.88
2018-03-04T19:26:25.054Z,61.90
2018-03-04T19:28:53.377Z,63.32
2018-03-04T19:31:23.364Z,61.96
2018-03-04T19:33:51.513Z,62.03
2018-03-04T19:36:19.891Z,62.39
2018-03-04T19:38:48.212Z,62.64
2018-03-04T19:41:16.348Z,63.25
2018-03-04T19:43:44.794Z,62.87
2018-03-04T19:46:14.471Z,63.67
2018-03-04T19:48:43.178Z,63.87
2018-03-04T19:51:12.784Z,65.43
2018-03-04T19:53:42.005Z,65.74
2018-03-04T19:56:10.431Z,63.56
2018-03-04T19:58:38.740Z,63.86
2018-03-04T20:01:08.124Z,64.94
2018-03-04T20:03:37.508Z,63.98
2018-03-04T20:06:06.660Z,64.80
2018-03-04T20:08:35.648Z,65.04
2018-03-04T20:11:03.980Z,63.51
2018-03-04T20:13:32.052Z,63.12
2018-03-04T20:16:01.285Z,63.63
2018-03-04T20:18:30.215Z,64.50
2018-03-04T20:20:59.584Z,66.69
2018-03-04T20:23:27.903Z,65.68
2018-03-04T20:25:56.224Z,67.73
2018-03-04T20:28:24.359Z,65.45
2018-03-04T20:30:52.668Z,66.30
2018-03-04T20:33:20.980Z,66.62
2018-03-04T20:35:49.361Z,68.28
2018-03-04T20:38:18.297Z,67.15
2018-03-04T20:40:46.629Z,66.23
2018-03-04T20:43:15.508Z,66.88
2018-03-04T20:45:44.230Z,68.01
2018-03-04T20:48:13.856Z,67.30
2018-03-04T20:50:43.012Z,67.85
2018-03-04T20:53:12.213Z,68.42
2018-03-04T20:55:40.988Z,68.73
2018-03-04T20:58:09.416Z,68.83
2018-03-04T21:00:37.769Z,68.04
2018-03-04T21:03:06.079Z,69.18
2018-03-04T21:05:34.197Z,67.09
2018-03-04T21:08:03.227Z,67.49
2018-03-04T21:10:31.541Z,67.89
2018-03-04T21:13:00.016Z,68.37
2018-03-04T21:15:28.368Z,68.44
2018-03-04T21:17:56.836Z,68.44
2018-03-04T21:20:26.363Z,68.24
2018-03-04T21:22:54.760Z,69.93
2018-03-04T21:25:23.632Z,68.40
2018-03-04T21:27:52.580Z,70.57
2018-03-04T21:30:21.159Z,67.97
2018-03-04T21:32:50.952Z,67.90
2018-03-04T21:35:20.183Z,68.13
2018-03-04T21:37:48.661Z,68.32
2018-03-04T21:40:17.503Z,68.98
2018-03-04T21:42:45.896Z,67.95
2018-03-04T21:45:15.068Z,67.89
2018-03-04T21:47:44.192Z,68.46
2018-03-04T21:50:13.760Z,69.63
2018-03-04T21:52:42.430Z,69.96
2018-03-04T21:55:11.652Z,71.31
2018-03-04T21:57:40.404Z,70.76
2018-03-04T22:00:09.384Z,68.84
2018-03-04T22:02:38.176Z,68.93
2018-03-04T22:05:06.728Z,68.29
2018-03-04T22:07:36.140Z,67.97
2018-03-04T22:10:05.145Z,69.55
2018-03-04T22:12:34.008Z,68.68
2018-03-04T22:15:02.639Z,68.05
2018-03-04T22:17:32.199Z,67.65
2018-03-04T22:20:00.445Z,67.85
2018-03-04T22:22:28.715Z,67.91
2018-03-04T22:24:57.057Z,67.81
2018-03-04T22:27:26.226Z,68.60
2018-03-04T22:29:55.313Z,68.86
2018-03-04T22:32:24.416Z,70.59
2018-03-04T22:34:52.725Z,67.97
2018-03-04T22:37:21.081Z,67.24
2018-03-04T22:39:49.404Z,67.35
2018-03-04T22:42:18.576Z,67.43
2018-03-04T22:44:47.769Z,69.12
2018-03-04T22:47:16.544Z,67.46
2018-03-04T22:49:44.921Z,68.14
2018-03-04T22:52:13.405Z,68.50
2018-03-04T22:54:43.306Z,68.70
2018-03-04T22:57:11.668Z,68.94
2018-03-04T22:59:40.201Z,68.99
2018-03-04T23:02:08.569Z,69.47
2018-03-04T23:04:36.956Z,68.22
2018-03-04T23:07:07.699Z,68.02
2018-03-04T23:09:36.177Z,69.25
2018-03-04T23:12:04.505Z,68.49
2018-03-04T23:14:33.400Z,68.76
2018-03-04T23:17:02.416Z,70.01
2018-03-04T23:19:30.633Z,67.77
2018-03-04T23:21:58.941Z,68.99
2018-03-04T23:24:27.256Z,67.74
2018-03-04T23:26:55.620Z,67.80
2018-03-04T23:29:24.649Z,66.44
2018-03-04T23:31:53.601Z,67.35
2018-03-04T23:34:21.717Z,66.48
2018-03-04T23:36:50.035Z,67.15
2018-03-04T23:39:18.349Z,66.89
2018-03-04T23:41:46.760Z,67.49
2018-03-04T23:44:15.050Z,67.66
2018-03-04T23:46:43.460Z,67.34
2018-03-04T23:49:11.804Z,68.79
2018-03-04T23:51:40.564Z,70.16
2018-03-04T23:54:08.931Z,71.08
2018-03-04T23:56:37.237Z,71.60
2018-03-04T23:59:05.550Z,72.09
